Time;durP1;ratioP1;P1;durP2;ratioP2;P2;SDS_P1;SDS_P2;PMS_P1;PMS_P2;Temp;Humidity;BMP_temperature;BMP_pressure;BME280_temperature;BME280_humidity;BME280_pressure;Samples;Min_cycle;Max_cycle;Signal;HPM_P1;HPM_P2
2022/06/11 00:00:50;;;;;;;10.82;6.10;;;;;;;16.43;100.00;99940.63;5016089;28;20188;-80
2022/06/11 00:03:17;;;;;;;10.27;5.90;;;;;;;16.47;100.00;99945.72;5015900;28;20230;-81
2022/06/11 00:05:44;;;;;;;7.13;6.30;;;;;;;16.56;100.00;99943.28;5015733;28;20191;-81
2022/06/11 00:08:11;;;;;;;6.00;5.40;;;;;;;16.49;100.00;99948.34;5015357;28;20286;-81
2022/06/11 00:10:38;;;;;;;10.88;8.50;;;;;;;16.41;100.00;99946.19;5014952;28;20197;-80
2022/06/11 00:13:06;;;;;;;17.08;15.88;;;;;;;16.27;100.00;99944.53;5015260;28;20286;-81
2022/06/11 00:15:35;;;;;;;57.58;54.60;;;;;;;16.20;100.00;99950.56;5015436;28;20644;-81
2022/06/11 00:18:03;;;;;;;107.20;101.65;;;;;;;16.24;100.00;99946.63;5014701;28;20724;-81
2022/06/11 00:20:31;;;;;;;7.80;6.40;;;;;;;16.18;100.00;99947.09;5015156;28;20289;-80
2022/06/11 00:22:59;;;;;;;11.00;6.60;;;;;;;16.14;100.00;99949.16;5015090;28;20294;-80
2022/06/11 00:25:27;;;;;;;8.80;6.80;;;;;;;16.07;100.00;99953.31;5014910;28;20202;-80
2022/06/11 00:27:53;;;;;;;8.73;7.20;;;;;;;16.13;100.00;99939.28;5015394;28;20626;-81
2022/06/11 00:30:20;;;;;;;9.48;6.93;;;;;;;16.17;100.00;99942.66;5014372;28;20734;-80
2022/06/11 00:32:49;;;;;;;7.03;5.60;;;;;;;16.12;100.00;99942.97;5014788;28;20219;-80
2022/06/11 00:35:16;;;;;;;7.28;6.50;;;;;;;16.29;100.00;99949.00;5015137;28;20273;-80
2022/06/11 00:37:44;;;;;;;8.07;6.22;;;;;;;16.34;100.00;99944.06;5015323;28;20218;-80
2022/06/11 00:40:14;;;;;;;9.55;6.15;;;;;;;16.43;100.00;99955.09;5015020;28;20549;-80
2022/06/11 00:42:41;;;;;;;9.40;6.05;;;;;;;16.34;100.00;99947.66;5015173;28;20217;-80
2022/06/11 00:45:24;;;;;;;10.23;6.30;;;;;;;16.40;100.00;99949.91;5014986;28;20280;-81
2022/06/11 00:47:56;;;;;;;10.07;6.57;;;;;;;16.53;100.00;99944.41;5015037;28;20550;-81
2022/06/11 00:50:27;;;;;;;6.70;5.50;;;;;;;16.38;100.00;99945.56;5014520;28;20195;-80
2022/06/11 00:52:58;;;;;;;10.10;6.90;;;;;;;16.22;100.00;99943.16;5014707;28;20205;-81
2022/06/11 00:55:29;;;;;;;7.93;5.88;;;;;;;16.17;100.00;99937.22;5014052;28;20198;-81
2022/06/11 00:57:59;;;;;;;8.63;5.90;;;;;;;16.18;100.00;99944.38;5015090;28;20293;-81
2022/06/11 01:00:30;;;;;;;7.20;6.10;;;;;;;16.14;100.00;99934.72;5014468;28;20278;-81
2022/06/11 01:02:59;;;;;;;9.85;6.90;;;;;;;15.97;100.00;99931.44;5014701;28;20673;-81
2022/06/11 01:05:29;;;;;;;11.35;6.50;;;;;;;15.94;100.00;99931.69;5014661;28;20652;-80
2022/06/11 01:08:16;;;;;;;8.13;6.47;;;;;;;16.12;100.00;99934.81;5014758;28;20194;-80
2022/06/11 01:11:08;;;;;;;8.55;6.15;;;;;;;16.31;100.00;99934.31;5014415;28;20205;-81
2022/06/11 01:13:42;;;;;;;7.93;5.78;;;;;;;16.31;100.00;99933.44;5014584;28;20651;-80
2022/06/11 01:16:14;;;;;;;7.25;5.15;;;;;;;16.23;100.00;99934.00;5013584;28;20200;-81
2022/06/11 01:18:54;;;;;;;6.53;5.30;;;;;;;15.99;100.00;99928.63;5014467;28;20194;-80
2022/06/11 01:21:30;;;;;;;6.63;5.70;;;;;;;15.99;100.00;99924.03;5014288;28;20682;-81
2022/06/11 01:24:31;;;;;;;6.15;5.55;;;;;;;16.16;100.00;99924.59;5013971;28;20291;-81
2022/06/11 01:27:33;;;;;;;13.85;6.40;;;;;;;16.29;100.00;99925.41;5013641;28;20190;-80
2022/06/11 01:30:04;;;;;;;8.57;5.50;;;;;;;16.13;100.00;99924.84;5006738;28;20245;-80
2022/06/11 01:32:41;;;;;;;7.10;6.05;;;;;;;15.87;100.00;99919.50;5014125;28;20266;-80
2022/06/11 01:35:18;;;;;;;8.82;6.70;;;;;;;15.75;100.00;99923.16;5013294;28;20194;-80
2022/06/11 01:37:49;;;;;;;7.30;6.50;;;;;;;15.76;100.00;99920.34;5013584;28;20193;-80
2022/06/11 01:40:26;;;;;;;7.45;6.18;;;;;;;15.73;100.00;99925.97;5013777;28;20682;-80
2022/06/11 01:42:59;;;;;;;8.32;6.25;;;;;;;15.76;100.00;99923.06;4993533;28;20211;-81
2022/06/11 01:45:30;;;;;;;7.72;6.55;;;;;;;15.92;100.00;99922.78;4993909;28;20194;-80
2022/06/11 01:47:58;;;;;;;7.10;5.38;;;;;;;15.91;100.00;99921.03;4994186;28;20653;-80
2022/06/11 01:50:30;;;;;;;6.90;5.88;;;;;;;15.83;100.00;99915.31;4993772;28;20199;-81
2022/06/11 01:53:14;;;;;;;8.63;6.05;;;;;;;15.60;100.00;99917.88;4993995;28;20191;-79
2022/06/11 01:55:54;;;;;;;6.97;5.88;;;;;;;15.58;100.00;99908.06;4993996;28;20191;-79
2022/06/11 01:58:36;;;;;;;6.80;5.88;;;;;;;15.62;100.00;99917.72;5009428;28;20198;-81
2022/06/11 02:01:15;;;;;;;8.45;5.53;;;;;;;15.83;100.00;99924.31;5013265;28;20274;-81
2022/06/11 02:03:52;;;;;;;8.57;7.03;;;;;;;15.74;100.00;99921.44;5012265;28;20213;-81
2022/06/11 02:06:33;;;;;;;12.95;6.85;;;;;;;15.73;100.00;99916.97;5005669;28;20222;-80
2022/06/11 02:09:16;;;;;;;11.20;6.65;;;;;;;15.73;100.00;99925.97;5012832;28;20183;-81
2022/06/11 02:11:45;;;;;;;8.57;5.75;;;;;;;15.67;100.00;99923.72;5013582;28;20191;-80
2022/06/11 02:14:19;;;;;;;6.95;6.25;;;;;;;15.88;100.00;99932.13;5013095;28;20191;-81
2022/06/11 02:16:53;;;;;;;6.82;6.10;;;;;;;16.03;100.00;99928.25;5013450;28;20622;-81
2022/06/11 02:19:22;;;;;;;10.20;6.35;;;;;;;16.08;100.00;99927.03;5013206;28;20189;-80
2022/06/11 02:21:57;;;;;;;12.10;5.95;;;;;;;16.13;100.00;99930.28;5013348;28;20629;-81
2022/06/11 02:24:29;;;;;;;9.75;6.50;;;;;;;16.14;100.00;99934.72;5012594;28;20289;-81
2022/06/11 02:27:00;;;;;;;10.23;6.00;;;;;;;16.17;100.00;99924.50;5013354;28;20218;-80
2022/06/11 02:29:27;;;;;;;9.52;5.88;;;;;;;16.12;100.00;99932.09;5013318;28;20230;-81
2022/06/11 02:31:58;;;;;;;6.68;6.00;;;;;;;16.18;100.00;99928.94;5013392;28;20629;-81
2022/06/11 02:34:27;;;;;;;7.47;6.68;;;;;;;16.14;100.00;99934.72;5013356;28;20214;-81
2022/06/11 02:36:59;;;;;;;7.60;5.47;;;;;;;16.17;100.00;99934.50;5012818;28;20191;-81
2022/06/11 02:39:26;;;;;;;7.85;5.95;;;;;;;16.07;100.00;99937.03;5013293;28;20595;-81
2022/06/11 02:41:54;;;;;;;7.03;5.70;;;;;;;16.09;100.00;99940.50;5012784;28;20209;-81
2022/06/11 02:44:22;;;;;;;8.55;6.00;;;;;;;16.13;100.00;99938.44;5012953;28;20189;-81
2022/06/11 02:46:49;;;;;;;9.10;5.80;;;;;;;15.95;100.00;99936.09;5011942;28;20194;-80
2022/06/11 02:49:28;;;;;;;8.80;6.20;;;;;;;15.65;100.00;99941.97;4996292;28;20199;-81
2022/06/11 02:51:59;;;;;;;8.50;5.78;;;;;;;15.82;100.00;99943.44;5012998;28;20222;-81
2022/06/11 02:54:26;;;;;;;6.35;5.75;;;;;;;15.84;100.00;99939.63;5012572;28;20257;-81
2022/06/11 02:56:56;;;;;;;8.45;5.82;;;;;;;15.74;100.00;99940.44;5012664;28;20203;-81
2022/06/11 02:59:24;;;;;;;7.22;5.90;;;;;;;15.69;100.00;99942.56;5012625;28;20225;-80
2022/06/11 03:01:52;;;;;;;8.15;6.13;;;;;;;15.71;100.00;99951.50;5012734;28;20289;-81
2022/06/11 03:04:20;;;;;;;7.50;5.55;;;;;;;15.59;100.00;99954.13;5013154;28;20270;-81
2022/06/11 03:06:48;;;;;;;8.30;6.40;;;;;;;15.48;100.00;99945.88;5012252;28;20202;-81
2022/06/11 03:09:17;;;;;;;6.78;6.18;;;;;;;15.53;100.00;99948.28;5013082;28;20221;-80
2022/06/11 03:11:44;;;;;;;8.25;5.85;;;;;;;15.51;100.00;99952.94;5012908;28;20279;-81
2022/06/11 03:14:12;;;;;;;8.18;6.30;;;;;;;15.45;100.00;99951.56;5013467;28;20183;-81
2022/06/11 03:16:39;;;;;;;9.13;6.53;;;;;;;15.39;100.00;99946.56;5016260;28;20282;-80
2022/06/11 03:19:07;;;;;;;10.35;6.45;;;;;;;15.32;100.00;99942.56;5016218;28;20285;-81
2022/06/11 03:21:35;;;;;;;7.35;5.57;;;;;;;15.30;100.00;99949.94;5016331;28;20269;-80
2022/06/11 03:24:02;;;;;;;9.40;6.10;;;;;;;15.33;100.00;99949.72;5015212;28;20293;-80
2022/06/11 03:26:32;;;;;;;8.25;6.25;;;;;;;15.27;100.00;99950.19;5015716;28;20598;-80
2022/06/11 03:28:59;;;;;;;7.07;5.80;;;;;;;15.20;100.00;99958.75;5015407;28;20241;-79
2022/06/11 03:31:25;;;;;;;9.48;6.47;;;;;;;15.36;100.00;99950.38;5015490;28;20271;-80
2022/06/11 03:33:52;;;;;;;8.07;6.43;;;;;;;15.39;100.00;99943.84;5014784;28;20226;-79
2022/06/11 03:36:19;;;;;;;8.23;6.40;;;;;;;15.33;100.00;99947.91;5015282;28;20214;-80
2022/06/11 03:38:48;;;;;;;10.32;6.45;;;;;;;15.18;100.00;99958.00;5015360;28;20286;-79
2022/06/11 03:41:17;;;;;;;10.10;6.75;;;;;;;15.04;100.00;99952.69;5015362;28;20293;-80
2022/06/11 03:43:44;;;;;;;9.25;5.90;;;;;;;14.98;100.00;99958.53;5015373;28;20293;-79
2022/06/11 03:46:10;;;;;;;10.35;6.28;;;;;;;15.05;100.00;99961.69;5014693;28;20290;-79
2022/06/11 03:48:38;;;;;;;12.23;6.60;;;;;;;14.92;100.00;99964.38;5015074;28;20195;-79
2022/06/11 03:51:06;;;;;;;6.50;5.90;;;;;;;14.86;100.00;99975.69;5015403;28;20289;-79
2022/06/11 03:53:34;;;;;;;7.38;6.32;;;;;;;14.93;100.00;99985.13;5015295;28;20233;-78
2022/06/11 03:56:02;;;;;;;6.45;5.60;;;;;;;14.88;100.00;99984.56;5015452;28;20812;-81
2022/06/11 03:58:29;;;;;;;7.82;6.82;;;;;;;14.91;100.00;99987.06;5012441;28;20622;-80
2022/06/11 04:03:41;;;;;;;10.57;7.95;;;;;;;14.99;100.00;99987.38;5014502;28;20253;-79
2022/06/11 04:06:08;;;;;;;6.65;5.60;;;;;;;14.99;100.00;99982.84;5013623;28;20719;-79
2022/06/11 04:08:35;;;;;;;9.85;6.38;;;;;;;15.00;100.00;99987.28;5014346;28;20194;-79
2022/06/11 04:11:05;;;;;;;12.23;7.78;;;;;;;14.98;100.00;99985.66;5014222;28;20189;-79
2022/06/11 04:13:34;;;;;;;7.55;6.13;;;;;;;15.08;100.00;99983.16;5014462;28;20720;-80
2022/06/11 04:16:02;;;;;;;7.65;6.63;;;;;;;15.20;100.00;99991.28;5014250;28;20706;-80
2022/06/11 04:18:33;;;;;;;8.05;6.05;;;;;;;15.07;100.00;99992.28;5014507;28;20278;-80
2022/06/11 04:21:01;;;;;;;9.80;5.85;;;;;;;14.99;100.00;99988.28;5005497;28;20199;-79
2022/06/11 04:23:29;;;;;;;7.30;6.53;;;;;;;14.98;100.00;99993.78;5014034;28;20725;-79
2022/06/11 04:25:56;;;;;;;8.30;6.43;;;;;;;14.97;100.00;99992.06;5012614;28;20222;-79
2022/06/11 04:28:25;;;;;;;8.38;6.80;;;;;;;14.97;100.00;99994.78;5013865;28;20203;-80
2022/06/11 04:30:52;;;;;;;8.80;7.00;;;;;;;14.96;100.00;99996.59;5013268;28;20236;-80
2022/06/11 04:33:18;;;;;;;8.00;6.57;;;;;;;14.98;100.00;100002.78;5014316;28;20550;-78
2022/06/11 04:35:45;;;;;;;6.70;5.85;;;;;;;15.08;100.00;100000.31;5012885;28;20283;-78
2022/06/11 04:38:12;;;;;;;7.35;6.65;;;;;;;15.20;100.00;99999.44;5014117;28;20279;-78
2022/06/11 04:40:39;;;;;;;12.80;7.18;;;;;;;15.30;100.00;99996.06;5014004;28;20195;-79
2022/06/11 04:43:06;;;;;;;7.70;6.53;;;;;;;15.29;100.00;99997.06;5014801;28;20227;-79
2022/06/11 04:45:34;;;;;;;10.65;7.05;;;;;;;15.37;100.00;100003.63;5015140;28;20222;-79
2022/06/11 04:48:01;;;;;;;8.82;6.88;;;;;;;15.63;100.00;99993.63;5014507;28;20226;-78
2022/06/11 04:50:28;;;;;;;8.82;7.15;;;;;;;15.84;100.00;99995.78;4994065;28;20203;-78
2022/06/11 04:52:54;;;;;;;10.15;6.43;;;;;;;15.84;100.00;99990.34;4994378;28;20183;-79
2022/06/11 04:55:21;;;;;;;9.88;7.22;;;;;;;15.97;100.00;99999.31;5008876;28;20289;-80
2022/06/11 04:57:48;;;;;;;8.38;6.68;;;;;;;16.17;100.00;100002.41;5013298;28;20201;-80
2022/06/11 05:00:18;;;;;;;13.45;7.90;;;;;;;16.31;100.00;99994.09;5013658;28;20664;-80
2022/06/11 05:02:46;;;;;;;9.13;6.15;;;;;;;16.37;100.00;99998.16;5013323;28;20298;-80
2022/06/11 05:05:13;;;;;;;10.40;7.10;;;;;;;16.38;100.00;100000.78;5012556;28;20210;-80
2022/06/11 05:07:40;;;;;;;11.93;7.38;;;;;;;16.66;100.00;99998.66;5012497;28;20212;-79
2022/06/11 05:10:09;;;;;;;10.48;6.65;;;;;;;16.90;100.00;99995.94;5012604;28;20202;-79
2022/06/11 05:12:36;;;;;;;10.88;7.65;;;;;;;17.03;100.00;99996.72;5012049;28;20293;-79
2022/06/11 05:15:02;;;;;;;11.95;7.47;;;;;;;16.91;100.00;99999.50;5012596;28;20203;-79
2022/06/11 05:17:29;;;;;;;11.40;7.10;;;;;;;16.95;100.00;100003.72;5012562;28;20294;-80
2022/06/11 05:19:57;;;;;;;10.75;7.00;;;;;;;16.98;100.00;99998.03;5011546;28;20201;-78
2022/06/11 05:22:24;;;;;;;12.77;7.13;;;;;;;17.17;100.00;100001.06;5012621;28;20709;-79
2022/06/11 05:24:51;;;;;;;7.53;6.68;;;;;;;17.21;100.00;99999.81;5012319;28;20210;-80
2022/06/11 05:27:21;;;;;;;11.95;7.55;;;;;;;17.17;100.00;100002.91;5012414;28;20294;-80
2022/06/11 05:29:54;;;;;;;7.88;6.60;;;;;;;17.28;100.00;100002.94;5012780;28;20323;-81
2022/06/11 05:32:21;;;;;;;8.35;7.05;;;;;;;17.07;100.00;100000.03;5013397;28;20603;-81
2022/06/11 05:34:49;;;;;;;9.23;8.38;;;;;;;17.23;100.00;100006.03;5011966;28;20647;-79
2022/06/11 05:37:19;;;;;;;8.40;6.20;;;;;;;17.31;100.00;100008.13;5012573;28;20271;-79
2022/06/11 05:39:47;;;;;;;12.82;7.38;;;;;;;17.43;100.00;100000.81;5013397;28;20718;-79
2022/06/11 05:42:14;;;;;;;7.07;6.38;;;;;;;17.22;100.00;100001.53;5011900;28;20704;-81
2022/06/11 05:44:41;;;;;;;11.77;6.60;;;;;;;17.31;100.00;100005.41;5012252;28;20209;-80
2022/06/11 05:47:11;;;;;;;11.60;7.85;;;;;;;17.46;100.00;100006.03;5012942;28;20222;-79
2022/06/11 05:49:41;;;;;;;9.60;6.93;;;;;;;17.47;100.00;100005.03;5013352;28;20269;-79
2022/06/11 05:52:13;;;;;;;7.85;6.90;;;;;;;17.80;100.00;100004.16;5012789;28;20211;-79
2022/06/11 05:54:42;;;;;;;8.90;6.45;;;;;;;17.97;100.00;100008.25;5012325;28;20279;-79
2022/06/11 05:57:13;;;;;;;9.32;7.32;;;;;;;18.07;100.00;100009.22;5012252;28;20272;-80
2022/06/11 05:59:45;;;;;;;7.43;6.63;;;;;;;18.42;100.00;100010.00;5012844;28;20637;-82
2022/06/11 06:02:14;;;;;;;10.55;7.63;;;;;;;18.39;100.00;100007.53;5013284;28;20188;-79
2022/06/11 06:04:41;;;;;;;7.57;6.38;;;;;;;18.59;100.00;100008.53;5013631;28;20229;-79
2022/06/11 06:07:09;;;;;;;7.38;6.50;;;;;;;18.91;100.00;100008.56;5013407;28;20200;-80
2022/06/11 06:09:37;;;;;;;8.90;6.43;;;;;;;19.04;100.00;100009.22;5013022;28;21004;-80
2022/06/11 06:12:06;;;;;;;6.70;5.45;;;;;;;19.05;100.00;100010.94;5011502;28;20233;-79
2022/06/11 06:14:33;;;;;;;12.20;6.57;;;;;;;19.33;99.96;100001.22;5010814;28;20687;-80
2022/06/11 06:17:00;;;;;;;7.30;5.70;;;;;;;19.42;97.78;100009.56;5011233;28;20208;-79
2022/06/11 06:19:26;;;;;;;8.02;5.45;;;;;;;19.46;96.75;100000.13;5012419;28;20293;-80
2022/06/11 06:21:53;;;;;;;9.15;5.75;;;;;;;19.76;94.92;100000.16;5012461;28;20214;-80
2022/06/11 06:24:20;;;;;;;9.83;5.30;;;;;;;20.08;92.18;100007.28;5011955;28;20232;-80
2022/06/11 06:26:50;;;;;;;9.37;7.13;;;;;;;20.44;88.70;100013.06;5012082;28;20433;-80
2022/06/11 06:29:18;;;;;;;6.67;4.90;;;;;;;20.63;86.90;100005.94;5010969;28;20485;-80
2022/06/11 06:31:44;;;;;;;9.10;6.33;;;;;;;20.88;85.11;100007.22;5010894;28;20519;-79
2022/06/11 06:34:11;;;;;;;10.63;5.10;;;;;;;20.94;83.21;100002.03;5011776;28;20513;-81
2022/06/11 06:36:38;;;;;;;6.40;4.57;;;;;;;21.26;80.27;100006.28;5011888;28;20513;-81
2022/06/11 06:39:07;;;;;;;9.70;5.67;;;;;;;21.40;77.80;100005.84;5012208;28;20524;-81
2022/06/11 06:41:35;;;;;;;4.80;4.30;;;;;;;21.59;74.93;100010.38;5011772;28;20840;-80
2022/06/11 06:44:04;;;;;;;8.90;5.77;;;;;;;21.70;74.25;100003.84;5010354;28;20478;-81
2022/06/11 06:46:32;;;;;;;10.83;6.27;;;;;;;21.94;71.67;100000.56;5011593;28;20525;-81
2022/06/11 06:48:58;;;;;;;5.27;4.10;;;;;;;22.09;70.18;100009.13;5011142;28;20532;-80
2022/06/11 06:51:25;;;;;;;7.83;4.77;;;;;;;22.02;70.46;100008.88;5016102;28;20436;-81
2022/06/11 06:53:52;;;;;;;8.40;4.40;;;;;;;22.06;70.45;100007.56;5016415;28;20845;-80
2022/06/11 06:56:18;;;;;;;5.87;4.07;;;;;;;22.09;70.59;100009.13;5015923;28;20477;-81
2022/06/11 06:58:45;;;;;;;8.13;3.53;;;;;;;22.11;70.72;100006.22;5016139;28;20440;-80
2022/06/11 07:01:12;;;;;;;10.07;4.20;;;;;;;22.08;71.63;100004.66;5015125;28;20504;-81
2022/06/11 07:03:41;;;;;;;7.10;5.03;;;;;;;22.00;72.82;100004.56;5013890;28;20489;-80
2022/06/11 07:06:07;;;;;;;7.77;4.40;;;;;;;21.95;74.43;100004.16;5015025;28;20524;-80
2022/06/11 07:08:34;;;;;;;6.63;4.40;;;;;;;21.68;76.50;100010.50;5015014;28;20520;-80
2022/06/11 07:11:02;;;;;;;5.40;4.30;;;;;;;21.73;76.46;100008.16;5014494;28;20871;-80
2022/06/11 07:13:29;;;;;;;8.43;4.07;;;;;;;21.78;76.96;100003.97;5015307;28;20426;-81
2022/06/11 07:15:56;;;;;;;8.03;4.70;;;;;;;21.89;76.23;100002.03;5014864;28;20897;-81
2022/06/11 07:18:27;;;;;;;6.53;4.33;;;;;;;22.11;75.49;99998.88;5014865;28;20468;-80
2022/06/11 07:20:57;;;;;;;5.40;4.50;;;;;;;22.48;73.55;100015.25;5014876;28;20532;-80
2022/06/11 07:23:26;;;;;;;10.23;3.93;;;;;;;22.79;71.52;100006.63;5015347;28;20904;-80
2022/06/11 07:25:56;;;;;;;5.80;3.80;;;;;;;23.08;70.04;100006.38;5015729;28;20504;-80
2022/06/11 07:28:31;;;;;;;4.17;3.70;;;;;;;23.31;69.25;100006.72;5014337;28;20447;-81
2022/06/11 07:31:00;;;;;;;6.63;4.50;;;;;;;23.38;69.47;100006.06;5015017;28;20557;-80
2022/06/11 07:33:27;;;;;;;6.10;4.43;;;;;;;23.66;67.41;100006.75;5014299;28;20434;-80
2022/06/11 07:35:56;;;;;;;4.57;3.77;;;;;;;23.56;66.68;100001.34;5014343;28;20441;-80
2022/06/11 07:38:24;;;;;;;8.30;3.80;;;;;;;23.68;66.55;100001.97;5015211;28;20429;-81
2022/06/11 07:40:51;;;;;;;7.20;4.27;;;;;;;23.69;65.97;99999.03;5014331;28;20441;-81
2022/06/11 07:43:18;;;;;;;4.77;3.50;;;;;;;23.73;65.71;100007.81;5014499;28;20441;-80
2022/06/11 07:45:45;;;;;;;4.03;3.63;;;;;;;23.83;65.17;100003.06;5014093;28;20509;-80
2022/06/11 07:48:13;;;;;;;13.27;4.33;;;;;;;23.97;64.00;99996.09;5013854;28;20524;-81
2022/06/11 07:50:41;;;;;;;6.03;3.50;;;;;;;24.06;62.13;99989.59;5014503;28;20441;-80
2022/06/11 07:53:10;;;;;;;4.87;3.90;;;;;;;24.26;60.38;99995.69;5014203;28;20430;-80
2022/06/11 07:55:40;;;;;;;7.00;4.00;;;;;;;24.23;59.52;99989.66;5014336;28;20441;-81
2022/06/11 07:58:09;;;;;;;6.30;3.93;;;;;;;24.35;58.63;99988.28;4995168;28;20913;-79
2022/06/11 08:00:38;;;;;;;4.47;3.50;;;;;;;24.56;57.30;99998.88;5007916;28;20434;-79
2022/06/11 08:03:06;;;;;;;4.97;2.57;;;;;;;24.70;56.02;99997.34;5014021;28;20635;-80
2022/06/11 08:05:34;;;;;;;6.53;2.93;;;;;;;24.81;55.80;99988.72;5013878;28;20468;-79
2022/06/11 08:08:01;;;;;;;4.57;2.97;;;;;;;24.53;56.40;99993.69;5014529;28;20947;-79
2022/06/11 08:10:30;;;;;;;5.93;3.07;;;;;;;24.47;55.96;99997.09;5014399;28;20449;-79
2022/06/11 08:12:57;;;;;;;4.40;2.77;;;;;;;24.83;54.75;99991.28;5015049;28;20962;-79
2022/06/11 08:15:24;;;;;;;4.10;2.20;;;;;;;24.82;53.82;100000.59;5016420;28;20442;-78
2022/06/11 08:17:51;;;;;;;3.30;2.40;;;;;;;25.25;51.89;100001.28;5015430;28;20923;-79
2022/06/11 08:20:21;;;;;;;4.77;2.80;;;;;;;25.43;51.91;99998.34;5014634;28;20524;-79
2022/06/11 08:22:55;;;;;;;5.60;2.40;;;;;;;25.19;52.00;99997.34;5012770;28;20524;-81
2022/06/11 08:25:32;;;;;;;10.10;2.93;;;;;;;25.30;51.99;99994.22;5013807;28;20479;-81
2022/06/11 08:28:01;;;;;;;10.77;7.30;;;;;;;25.61;51.14;100000.88;5011945;28;20533;-80
2022/06/11 08:30:30;;;;;;;7.03;3.70;;;;;;;25.64;49.92;100000.50;5011978;28;20564;-79
2022/06/11 08:32:57;;;;;;;5.17;3.97;;;;;;;25.81;49.41;100002.19;5011268;28;20472;-81
2022/06/11 08:35:27;;;;;;;5.63;2.40;;;;;;;25.89;49.24;99999.44;5013668;28;20794;-78
2022/06/11 08:37:54;;;;;;;3.17;2.37;;;;;;;25.93;47.83;100000.78;5013537;28;20442;-79
2022/06/11 08:40:31;;;;;;;5.17;2.73;;;;;;;25.91;46.67;100004.75;5011727;28;20448;-80
2022/06/11 08:43:03;;;;;;;5.07;2.47;;;;;;;26.05;45.89;99995.75;5012754;28;20449;-81
2022/06/11 08:45:38;;;;;;;4.90;2.20;;;;;;;25.84;46.84;100003.72;5012663;28;20481;-80
2022/06/11 08:48:13;;;;;;;4.50;3.40;;;;;;;25.89;46.83;99999.44;5012565;28;20469;-80
2022/06/11 08:50:46;;;;;;;6.17;3.00;;;;;;;25.93;46.36;99994.41;5012946;28;20543;-79
2022/06/11 08:53:14;;;;;;;4.70;3.13;;;;;;;26.05;45.15;99986.59;5013206;28;20826;-80
2022/06/11 08:55:40;;;;;;;5.00;2.43;;;;;;;26.29;44.54;100000.25;5013071;28;20817;-81
2022/06/11 08:58:19;;;;;;;12.77;11.63;;;;;;;26.32;44.20;99993.50;5012360;28;20536;-78
2022/06/11 09:00:52;;;;;;;12.67;3.00;;;;;;;26.27;45.26;99984.91;5014230;28;20721;-81
2022/06/11 09:03:37;;;;;;;4.00;2.30;;;;;;;26.45;44.75;99987.41;5013213;28;20426;-80
2022/06/11 09:06:28;;;;;;;5.07;2.20;;;;;;;25.85;45.29;99984.25;5013500;28;20552;-80
2022/06/11 09:09:04;;;;;;;2.53;2.10;;;;;;;26.12;44.62;99980.19;5014002;28;20910;-79
2022/06/11 09:11:58;;;;;;;5.07;2.50;;;;;;;26.35;44.26;99987.66;5012580;28;20476;-81
2022/06/11 09:14:45;;;;;;;5.23;2.07;;;;;;;26.67;42.62;99992.09;5013079;28;20441;-80
2022/06/11 09:17:29;;;;;;;3.53;1.63;;;;;;;26.91;41.52;99987.41;5009922;28;20572;-81
2022/06/11 09:20:10;;;;;;;2.40;1.67;;;;;;;27.13;40.71;99989.28;5013693;28;20786;-79
2022/06/11 09:22:59;;;;;;;3.83;2.07;;;;;;;27.26;40.86;99990.59;5013498;28;20927;-80
2022/06/11 09:25:34;;;;;;;15.23;3.53;;;;;;;27.37;41.25;99982.69;5012300;28;20476;-80
2022/06/11 09:28:08;;;;;;;6.53;2.40;;;;;;;27.47;41.65;99976.03;5012422;28;20951;-82
2022/06/11 09:30:40;;;;;;;4.10;2.43;;;;;;;27.77;41.03;99985.16;5012087;28;20476;-81
2022/06/11 09:33:16;;;;;;;6.87;2.40;;;;;;;27.88;40.62;99978.34;5012702;28;20525;-80
2022/06/11 09:35:51;;;;;;;4.67;3.90;;;;;;;27.80;41.02;99984.81;5012985;28;20828;-81
2022/06/11 09:38:36;;;;;;;8.93;3.50;;;;;;;27.62;41.16;99979.66;5012353;28;20429;-81
2022/06/11 09:41:14;;;;;;;3.87;2.70;;;;;;;27.77;40.64;99979.63;5012496;28;20889;-81
2022/06/11 09:43:50;;;;;;;5.10;2.10;;;;;;;27.90;40.21;99988.16;5012162;28;20444;-81
2022/06/11 09:46:25;;;;;;;4.40;2.20;;;;;;;27.92;40.13;99986.06;5012427;28;20925;-81
2022/06/11 09:49:12;;;;;;;3.10;2.10;;;;;;;28.02;39.96;99981.09;5011994;28;20448;-81
2022/06/11 09:51:47;;;;;;;4.23;1.90;;;;;;;27.83;40.02;99981.66;5012993;28;20454;-82
2022/06/11 09:54:32;;;;;;;8.60;7.53;;;;;;;27.95;40.69;99976.50;5012897;28;20944;-81
2022/06/11 09:57:09;;;;;;;4.63;2.17;;;;;;;27.69;40.35;99988.06;5012192;28;20492;-80
2022/06/11 09:59:40;;;;;;;5.17;2.13;;;;;;;27.80;40.01;99984.81;5011660;28;20429;-80
2022/06/11 10:02:29;;;;;;;4.87;1.97;;;;;;;27.97;39.46;99980.81;5012213;28;20852;-81
2022/06/11 10:04:58;;;;;;;4.80;2.20;;;;;;;28.05;39.31;99980.69;5008596;28;20473;-81
2022/06/11 10:07:29;;;;;;;9.10;2.20;;;;;;;28.03;39.71;99977.25;5011430;28;20448;-80
2022/06/11 10:10:02;;;;;;;7.13;3.10;;;;;;;28.20;39.64;99980.69;5011996;28;20435;-81
2022/06/11 10:12:36;;;;;;;3.97;1.87;;;;;;;28.17;39.30;99982.97;5011919;28;20536;-81
2022/06/11 10:15:11;;;;;;;2.83;1.80;;;;;;;27.64;40.31;99981.19;5012537;28;20410;-81
2022/06/11 10:17:50;;;;;;;3.33;1.90;;;;;;;28.00;39.90;99983.19;5012068;28;20998;-81
2022/06/11 10:20:22;;;;;;;2.90;1.80;;;;;;;27.49;40.75;99973.94;5011262;28;20525;-80
2022/06/11 10:22:56;;;;;;;4.23;2.17;;;;;;;27.59;41.16;99972.59;5011769;28;20804;-81
2022/06/11 10:25:28;;;;;;;3.43;1.80;;;;;;;27.84;40.31;99983.41;5015015;28;20568;-81
2022/06/11 10:28:01;;;;;;;4.60;1.80;;;;;;;27.58;41.31;99976.41;5015998;28;20504;-81
2022/06/11 10:30:36;;;;;;;3.43;2.10;;;;;;;27.15;41.41;99981.66;5015517;28;20469;-80
2022/06/11 10:33:11;;;;;;;3.57;2.17;;;;;;;26.87;42.13;99975.03;5015433;28;20531;-83
2022/06/11 10:38:37;;;;;;;5.97;1.97;;;;;;;26.91;41.19;99984.66;5001542;28;20449;-81
2022/06/11 10:41:08;;;;;;;5.00;1.93;;;;;;;26.74;41.21;99982.03;5015623;28;20935;-80
2022/06/11 10:43:41;;;;;;;3.30;1.97;;;;;;;26.57;41.63;99975.78;5015291;28;20437;-80
2022/06/11 10:46:11;;;;;;;3.47;2.37;;;;;;;26.22;41.64;99977.19;5015901;28;20484;-80
2022/06/11 10:48:40;;;;;;;4.27;2.03;;;;;;;26.19;42.36;99970.13;5015944;28;20513;-80
2022/06/11 10:51:16;;;;;;;3.50;2.10;;;;;;;26.24;42.99;99972.34;5015923;28;20455;-80
2022/06/11 10:53:54;;;;;;;3.50;2.03;;;;;;;26.04;42.87;99962.81;5015976;28;20425;-80
2022/06/11 10:56:27;;;;;;;4.13;2.33;;;;;;;26.21;43.09;99972.72;5015271;28;20512;-80
2022/06/11 10:58:58;;;;;;;3.73;2.30;;;;;;;26.55;43.37;99971.50;5015395;28;20436;-81
2022/06/11 11:01:30;;;;;;;10.50;8.27;;;;;;;26.94;42.67;99962.19;5015568;28;20430;-81
2022/06/11 11:04:07;;;;;;;3.27;2.10;;;;;;;27.41;39.64;99956.38;5015856;28;21059;-81
2022/06/11 11:06:36;;;;;;;8.47;6.27;;;;;;;27.39;39.49;99958.47;5015876;28;20560;-81
2022/06/11 11:09:07;;;;;;;2.87;2.17;;;;;;;27.18;40.39;99958.31;5015909;28;20535;-81
2022/06/11 11:11:42;;;;;;;5.10;2.13;;;;;;;26.90;41.45;99966.38;5015929;28;20830;-80
2022/06/11 11:14:16;;;;;;;2.90;2.23;;;;;;;27.32;40.58;99948.38;5015477;28;20520;-81
2022/06/11 11:16:47;;;;;;;3.43;2.17;;;;;;;27.19;41.17;99958.13;5015428;28;20515;-81
2022/06/11 11:19:20;;;;;;;3.20;2.10;;;;;;;26.90;41.17;99958.09;5000802;28;20936;-80
2022/06/11 11:21:54;;;;;;;3.00;1.50;;;;;;;26.99;40.84;99956.97;5014779;28;20536;-80
2022/06/11 11:24:25;;;;;;;2.93;2.00;;;;;;;27.05;40.61;99956.22;5018433;28;20436;-78
2022/06/11 11:26:57;;;;;;;7.07;2.13;;;;;;;26.72;41.13;99950.13;5023178;28;20423;-79
2022/06/11 11:29:29;;;;;;;5.17;2.27;;;;;;;26.60;41.28;99949.72;5036466;28;20499;-79
2022/06/11 11:32:01;;;;;;;4.17;2.10;;;;;;;26.51;41.84;99948.03;5032153;28;20946;-79
2022/06/11 11:34:31;;;;;;;2.70;1.87;;;;;;;26.83;41.56;99950.53;5015687;28;20641;-78
2022/06/11 11:37:19;;;;;;;2.43;1.70;;;;;;;27.07;41.65;99947.72;5015030;28;20516;-79
2022/06/11 11:39:51;;;;;;;3.80;2.50;;;;;;;27.52;41.30;99949.53;5014644;28;20523;-80
2022/06/11 11:42:20;;;;;;;2.90;2.30;;;;;;;27.61;40.95;99940.09;5015713;28;20460;-79
2022/06/11 11:44:50;;;;;;;5.30;2.83;;;;;;;27.25;41.42;99953.81;5013238;28;20885;-80
2022/06/11 11:47:26;;;;;;;2.77;1.90;;;;;;;26.65;42.40;99947.25;5013668;28;20497;-79